sensor_id;sensor_type;location;lat;lon;timestamp;temperature;humidity
55785;DHT22;41709;52.536;5.688;2022-08-01T00:02:10;18.90;88.80
55785;DHT22;41709;52.536;5.688;2022-08-01T00:04:35;18.90;88.60
55785;DHT22;41709;52.536;5.688;2022-08-01T00:07:01;18.80;88.80
55785;DHT22;41709;52.536;5.688;2022-08-01T00:09:27;18.80;89.20
55785;DHT22;41709;52.536;5.688;2022-08-01T00:11:52;18.60;90.00
55785;DHT22;41709;52.536;5.688;2022-08-01T00:14:18;18.70;89.70
55785;DHT22;41709;52.536;5.688;2022-08-01T00:16:43;18.70;89.70
55785;DHT22;41709;52.536;5.688;2022-08-01T00:19:09;18.60;89.60
55785;DHT22;41709;52.536;5.688;2022-08-01T00:21:34;18.60;89.80
55785;DHT22;41709;52.536;5.688;2022-08-01T00:24:00;18.70;89.80
55785;DHT22;41709;52.536;5.688;2022-08-01T00:26:26;18.60;90.00
55785;DHT22;41709;52.536;5.688;2022-08-01T00:28:51;18.50;90.10
55785;DHT22;41709;52.536;5.688;2022-08-01T00:31:17;18.50;90.20
55785;DHT22;41709;52.536;5.688;2022-08-01T00:33:42;18.50;90.10
55785;DHT22;41709;52.536;5.688;2022-08-01T00:36:08;18.60;90.10
55785;DHT22;41709;52.536;5.688;2022-08-01T00:38:33;18.70;90.00
55785;DHT22;41709;52.536;5.688;2022-08-01T00:40:59;18.70;89.90
55785;DHT22;41709;52.536;5.688;2022-08-01T00:43:24;18.70;89.80
55785;DHT22;41709;52.536;5.688;2022-08-01T00:45:50;18.80;89.60
55785;DHT22;41709;52.536;5.688;2022-08-01T00:48:16;18.80;89.70
55785;DHT22;41709;52.536;5.688;2022-08-01T00:50:41;18.80;89.50
55785;DHT22;41709;52.536;5.688;2022-08-01T00:53:07;18.90;89.30
55785;DHT22;41709;52.536;5.688;2022-08-01T00:55:32;18.90;89.10
55785;DHT22;41709;52.536;5.688;2022-08-01T00:57:58;18.90;89.10
55785;DHT22;41709;52.536;5.688;2022-08-01T01:00:24;18.80;89.00
55785;DHT22;41709;52.536;5.688;2022-08-01T01:02:50;18.70;89.50
55785;DHT22;41709;52.536;5.688;2022-08-01T01:05:16;18.70;89.80
55785;DHT22;41709;52.536;5.688;2022-08-01T01:07:58;18.70;89.70
55785;DHT22;41709;52.536;5.688;2022-08-01T01:10:32;18.70;89.60
55785;DHT22;41709;52.536;5.688;2022-08-01T01:13:09;18.80;89.40
55785;DHT22;41709;52.536;5.688;2022-08-01T01:15:45;18.90;89.40
55785;DHT22;41709;52.536;5.688;2022-08-01T01:20:56;18.90;89.50
55785;DHT22;41709;52.536;5.688;2022-08-01T01:23:57;18.90;88.00
55785;DHT22;41709;52.536;5.688;2022-08-01T01:31:54;18.90;87.90
55785;DHT22;41709;52.536;5.688;2022-08-01T01:34:21;18.80;88.00
55785;DHT22;41709;52.536;5.688;2022-08-01T01:36:49;18.90;88.00
55785;DHT22;41709;52.536;5.688;2022-08-01T01:39:17;18.80;87.90
55785;DHT22;41709;52.536;5.688;2022-08-01T01:41:44;18.90;88.40
55785;DHT22;41709;52.536;5.688;2022-08-01T01:44:11;18.90;87.70
55785;DHT22;41709;52.536;5.688;2022-08-01T01:46:37;18.90;87.50
55785;DHT22;41709;52.536;5.688;2022-08-01T01:49:04;18.90;87.30
55785;DHT22;41709;52.536;5.688;2022-08-01T01:51:31;18.90;87.20
55785;DHT22;41709;52.536;5.688;2022-08-01T01:53:58;18.90;87.30
55785;DHT22;41709;52.536;5.688;2022-08-01T01:56:25;18.90;87.20
55785;DHT22;41709;52.536;5.688;2022-08-01T01:58:55;18.90;87.50
55785;DHT22;41709;52.536;5.688;2022-08-01T02:01:28;18.90;87.40
55785;DHT22;41709;52.536;5.688;2022-08-01T02:03:56;19.00;87.50
55785;DHT22;41709;52.536;5.688;2022-08-01T02:06:24;18.90;87.40
55785;DHT22;41709;52.536;5.688;2022-08-01T02:08:52;19.00;87.20
55785;DHT22;41709;52.536;5.688;2022-08-01T02:11:19;19.00;87.30
55785;DHT22;41709;52.536;5.688;2022-08-01T02:14:02;19.00;87.30
55785;DHT22;41709;52.536;5.688;2022-08-01T02:16:31;19.00;87.50
55785;DHT22;41709;52.536;5.688;2022-08-01T02:18:58;19.00;87.40
55785;DHT22;41709;52.536;5.688;2022-08-01T02:21:30;19.00;87.40
55785;DHT22;41709;52.536;5.688;2022-08-01T02:24:13;19.00;87.10
55785;DHT22;41709;52.536;5.688;2022-08-01T02:26:44;19.00;86.70
55785;DHT22;41709;52.536;5.688;2022-08-01T02:29:16;19.10;86.90
55785;DHT22;41709;52.536;5.688;2022-08-01T02:31:45;19.00;86.80
55785;DHT22;41709;52.536;5.688;2022-08-01T02:34:16;19.00;86.70
55785;DHT22;41709;52.536;5.688;2022-08-01T02:36:44;19.10;86.70
55785;DHT22;41709;52.536;5.688;2022-08-01T02:39:13;19.00;86.90
55785;DHT22;41709;52.536;5.688;2022-08-01T02:41:46;19.00;86.70
55785;DHT22;41709;52.536;5.688;2022-08-01T02:44:23;19.00;86.60
55785;DHT22;41709;52.536;5.688;2022-08-01T02:46:52;19.00;86.40
55785;DHT22;41709;52.536;5.688;2022-08-01T02:49:20;19.00;85.70
55785;DHT22;41709;52.536;5.688;2022-08-01T02:51:48;18.90;84.60
55785;DHT22;41709;52.536;5.688;2022-08-01T02:54:15;18.80;84.40
55785;DHT22;41709;52.536;5.688;2022-08-01T02:56:43;18.70;84.90
55785;DHT22;41709;52.536;5.688;2022-08-01T02:59:13;18.60;85.50
55785;DHT22;41709;52.536;5.688;2022-08-01T03:01:40;18.50;85.90
55785;DHT22;41709;52.536;5.688;2022-08-01T03:04:08;18.50;86.20
55785;DHT22;41709;52.536;5.688;2022-08-01T03:06:35;18.50;86.30
55785;DHT22;41709;52.536;5.688;2022-08-01T03:09:02;18.50;86.50
55785;DHT22;41709;52.536;5.688;2022-08-01T03:11:29;18.50;86.50
55785;DHT22;41709;52.536;5.688;2022-08-01T03:13:56;18.50;86.60
55785;DHT22;41709;52.536;5.688;2022-08-01T03:16:25;18.50;86.60
55785;DHT22;41709;52.536;5.688;2022-08-01T03:18:56;18.50;86.70
55785;DHT22;41709;52.536;5.688;2022-08-01T03:21:23;18.50;86.60
55785;DHT22;41709;52.536;5.688;2022-08-01T03:23:50;18.50;86.60
55785;DHT22;41709;52.536;5.688;2022-08-01T03:26:17;18.50;86.60
55785;DHT22;41709;52.536;5.688;2022-08-01T03:28:44;18.70;86.70
55785;DHT22;41709;52.536;5.688;2022-08-01T03:31:13;18.50;86.50
55785;DHT22;41709;52.536;5.688;2022-08-01T03:33:39;18.50;86.40
55785;DHT22;41709;52.536;5.688;2022-08-01T03:36:05;18.50;86.60
55785;DHT22;41709;52.536;5.688;2022-08-01T03:38:37;18.60;86.60
55785;DHT22;41709;52.536;5.688;2022-08-01T03:41:15;18.50;86.60
55785;DHT22;41709;52.536;5.688;2022-08-01T03:43:46;18.60;86.70
55785;DHT22;41709;52.536;5.688;2022-08-01T03:46:20;18.60;86.60
55785;DHT22;41709;52.536;5.688;2022-08-01T03:48:50;18.60;86.70
55785;DHT22;41709;52.536;5.688;2022-08-01T03:51:18;18.50;86.60
55785;DHT22;41709;52.536;5.688;2022-08-01T03:53:47;18.60;86.70
55785;DHT22;41709;52.536;5.688;2022-08-01T03:56:18;18.50;86.90
55785;DHT22;41709;52.536;5.688;2022-08-01T03:58:44;18.50;86.80
55785;DHT22;41709;52.536;5.688;2022-08-01T04:01:10;18.50;86.80
55785;DHT22;41709;52.536;5.688;2022-08-01T04:03:37;18.50;86.80
55785;DHT22;41709;52.536;5.688;2022-08-01T04:06:06;18.60;86.80
55785;DHT22;41709;52.536;5.688;2022-08-01T04:08:38;18.50;86.70
55785;DHT22;41709;52.536;5.688;2022-08-01T04:11:04;18.50;86.80
55785;DHT22;41709;52.536;5.688;2022-08-01T04:13:31;18.50;86.60
55785;DHT22;41709;52.536;5.688;2022-08-01T04:15:57;18.50;86.70
55785;DHT22;41709;52.536;5.688;2022-08-01T04:18:22;18.50;86.70
55785;DHT22;41709;52.536;5.688;2022-08-01T04:20:48;18.50;86.80
55785;DHT22;41709;52.536;5.688;2022-08-01T04:23:18;18.50;86.80
55785;DHT22;41709;52.536;5.688;2022-08-01T04:25:46;18.50;86.70
55785;DHT22;41709;52.536;5.688;2022-08-01T04:28:14;18.40;86.70
55785;DHT22;41709;52.536;5.688;2022-08-01T04:30:43;18.40;86.90
55785;DHT22;41709;52.536;5.688;2022-08-01T04:33:13;18.50;86.80
55785;DHT22;41709;52.536;5.688;2022-08-01T04:35:45;18.40;86.60
55785;DHT22;41709;52.536;5.688;2022-08-01T04:38:15;18.50;86.70
55785;DHT22;41709;52.536;5.688;2022-08-01T04:40:44;18.40;86.60
55785;DHT22;41709;52.536;5.688;2022-08-01T04:43:11;18.40;86.40
55785;DHT22;41709;52.536;5.688;2022-08-01T04:45:38;18.40;86.80
55785;DHT22;41709;52.536;5.688;2022-08-01T04:48:05;18.40;86.90
55785;DHT22;41709;52.536;5.688;2022-08-01T04:50:32;18.40;86.70
55785;DHT22;41709;52.536;5.688;2022-08-01T04:52:58;18.40;86.80
55785;DHT22;41709;52.536;5.688;2022-08-01T04:55:23;18.40;86.90
55785;DHT22;41709;52.536;5.688;2022-08-01T04:57:49;18.30;86.90
55785;DHT22;41709;52.536;5.688;2022-08-01T05:00:14;18.30;87.00
55785;DHT22;41709;52.536;5.688;2022-08-01T05:02:42;18.30;86.90
55785;DHT22;41709;52.536;5.688;2022-08-01T05:05:08;18.40;86.90
55785;DHT22;41709;52.536;5.688;2022-08-01T05:07:35;18.30;86.80
55785;DHT22;41709;52.536;5.688;2022-08-01T05:10:04;18.30;86.70
55785;DHT22;41709;52.536;5.688;2022-08-01T05:12:30;18.40;86.70
55785;DHT22;41709;52.536;5.688;2022-08-01T05:14:57;18.30;86.90
55785;DHT22;41709;52.536;5.688;2022-08-01T05:17:23;18.30;87.20
55785;DHT22;41709;52.536;5.688;2022-08-01T05:19:49;18.30;87.00
55785;DHT22;41709;52.536;5.688;2022-08-01T05:22:14;18.30;87.10
55785;DHT22;41709;52.536;5.688;2022-08-01T05:24:40;18.30;87.30
55785;DHT22;41709;52.536;5.688;2022-08-01T05:27:06;18.30;87.00
55785;DHT22;41709;52.536;5.688;2022-08-01T05:29:33;18.30;86.70
55785;DHT22;41709;52.536;5.688;2022-08-01T05:31:59;18.20;86.70
55785;DHT22;41709;52.536;5.688;2022-08-01T05:34:25;18.30;86.60
55785;DHT22;41709;52.536;5.688;2022-08-01T05:36:51;18.30;86.50
55785;DHT22;41709;52.536;5.688;2022-08-01T05:39:17;18.30;86.10
55785;DHT22;41709;52.536;5.688;2022-08-01T05:41:42;18.20;86.10
55785;DHT22;41709;52.536;5.688;2022-08-01T05:44:08;18.20;85.80
55785;DHT22;41709;52.536;5.688;2022-08-01T05:46:34;18.10;85.30
55785;DHT22;41709;52.536;5.688;2022-08-01T05:49:02;18.10;85.50
55785;DHT22;41709;52.536;5.688;2022-08-01T05:51:28;18.10;85.60
55785;DHT22;41709;52.536;5.688;2022-08-01T05:53:53;18.00;85.70
55785;DHT22;41709;52.536;5.688;2022-08-01T05:56:20;18.00;86.10
55785;DHT22;41709;52.536;5.688;2022-08-01T05:58:46;18.00;86.10
55785;DHT22;41709;52.536;5.688;2022-08-01T06:01:12;18.00;86.00
55785;DHT22;41709;52.536;5.688;2022-08-01T06:03:37;18.00;86.20
55785;DHT22;41709;52.536;5.688;2022-08-01T06:06:03;17.90;86.40
55785;DHT22;41709;52.536;5.688;2022-08-01T06:08:30;17.90;86.20
55785;DHT22;41709;52.536;5.688;2022-08-01T06:10:55;17.90;85.90
55785;DHT22;41709;52.536;5.688;2022-08-01T06:13:21;17.90;86.40
55785;DHT22;41709;52.536;5.688;2022-08-01T06:15:47;17.80;86.40
55785;DHT22;41709;52.536;5.688;2022-08-01T06:18:13;17.70;85.80
55785;DHT22;41709;52.536;5.688;2022-08-01T06:20:39;17.70;86.10
55785;DHT22;41709;52.536;5.688;2022-08-01T06:23:05;17.60;86.20
55785;DHT22;41709;52.536;5.688;2022-08-01T06:25:31;17.70;86.10
55785;DHT22;41709;52.536;5.688;2022-08-01T06:27:57;17.60;86.10
55785;DHT22;41709;52.536;5.688;2022-08-01T06:30:22;17.60;85.80
55785;DHT22;41709;52.536;5.688;2022-08-01T06:32:48;17.60;85.80
55785;DHT22;41709;52.536;5.688;2022-08-01T06:35:14;17.60;85.70
55785;DHT22;41709;52.536;5.688;2022-08-01T06:37:40;17.60;85.40
55785;DHT22;41709;52.536;5.688;2022-08-01T06:40:09;17.60;85.80
55785;DHT22;41709;52.536;5.688;2022-08-01T06:42:35;17.50;84.90
55785;DHT22;41709;52.536;5.688;2022-08-01T06:45:09;17.50;84.80
55785;DHT22;41709;52.536;5.688;2022-08-01T06:47:35;17.40;83.50
55785;DHT22;41709;52.536;5.688;2022-08-01T06:50:01;17.40;83.90
55785;DHT22;41709;52.536;5.688;2022-08-01T06:52:27;17.40;84.00
55785;DHT22;41709;52.536;5.688;2022-08-01T06:54:53;17.40;83.20
55785;DHT22;41709;52.536;5.688;2022-08-01T06:57:18;17.30;82.90
55785;DHT22;41709;52.536;5.688;2022-08-01T06:59:44;17.30;82.90
55785;DHT22;41709;52.536;5.688;2022-08-01T07:02:10;17.30;83.00
55785;DHT22;41709;52.536;5.688;2022-08-01T07:04:35;17.30;83.40
55785;DHT22;41709;52.536;5.688;2022-08-01T07:07:01;17.30;83.00
55785;DHT22;41709;52.536;5.688;2022-08-01T07:09:27;17.40;83.40
55785;DHT22;41709;52.536;5.688;2022-08-01T07:11:53;17.30;83.80
55785;DHT22;41709;52.536;5.688;2022-08-01T07:14:20;17.30;83.00
55785;DHT22;41709;52.536;5.688;2022-08-01T07:16:46;17.30;83.20
55785;DHT22;41709;52.536;5.688;2022-08-01T07:19:11;17.30;83.90
55785;DHT22;41709;52.536;5.688;2022-08-01T07:21:37;17.40;83.80
55785;DHT22;41709;52.536;5.688;2022-08-01T07:24:04;17.40;84.00
55785;DHT22;41709;52.536;5.688;2022-08-01T07:26:30;17.40;84.50
55785;DHT22;41709;52.536;5.688;2022-08-01T07:28:56;17.50;83.60
55785;DHT22;41709;52.536;5.688;2022-08-01T07:31:22;17.50;82.50
55785;DHT22;41709;52.536;5.688;2022-08-01T07:33:48;17.60;82.50
55785;DHT22;41709;52.536;5.688;2022-08-01T07:36:14;17.70;82.30
55785;DHT22;41709;52.536;5.688;2022-08-01T07:38:40;17.80;82.30
55785;DHT22;41709;52.536;5.688;2022-08-01T07:41:05;17.80;81.20
55785;DHT22;41709;52.536;5.688;2022-08-01T07:43:31;17.90;80.90
55785;DHT22;41709;52.536;5.688;2022-08-01T07:45:56;18.00;80.30
55785;DHT22;41709;52.536;5.688;2022-08-01T07:48:22;18.00;80.60
55785;DHT22;41709;52.536;5.688;2022-08-01T07:50:50;18.10;80.50
55785;DHT22;41709;52.536;5.688;2022-08-01T07:53:15;18.10;80.30
55785;DHT22;41709;52.536;5.688;2022-08-01T07:55:41;18.20;80.40
55785;DHT22;41709;52.536;5.688;2022-08-01T07:58:07;18.20;79.90
55785;DHT22;41709;52.536;5.688;2022-08-01T08:00:32;18.20;79.30
55785;DHT22;41709;52.536;5.688;2022-08-01T08:02:58;18.30;78.10
55785;DHT22;41709;52.536;5.688;2022-08-01T08:05:27;18.30;78.00
55785;DHT22;41709;52.536;5.688;2022-08-01T08:07:53;18.30;77.90
55785;DHT22;41709;52.536;5.688;2022-08-01T08:10:19;18.30;77.80
55785;DHT22;41709;52.536;5.688;2022-08-01T08:12:44;18.30;76.90
55785;DHT22;41709;52.536;5.688;2022-08-01T08:15:12;18.30;76.90
55785;DHT22;41709;52.536;5.688;2022-08-01T08:17:38;18.40;77.30
55785;DHT22;41709;52.536;5.688;2022-08-01T08:20:06;18.50;75.90
55785;DHT22;41709;52.536;5.688;2022-08-01T08:22:32;18.50;76.70
55785;DHT22;41709;52.536;5.688;2022-08-01T08:24:57;18.60;76.10
55785;DHT22;41709;52.536;5.688;2022-08-01T08:27:23;18.60;75.70
55785;DHT22;41709;52.536;5.688;2022-08-01T08:29:48;18.60;74.90
55785;DHT22;41709;52.536;5.688;2022-08-01T08:32:14;18.60;74.50
55785;DHT22;41709;52.536;5.688;2022-08-01T08:34:40;18.70;74.80
55785;DHT22;41709;52.536;5.688;2022-08-01T08:37:05;18.70;74.30
55785;DHT22;41709;52.536;5.688;2022-08-01T08:39:32;18.80;75.20
55785;DHT22;41709;52.536;5.688;2022-08-01T08:42:01;18.80;75.50
55785;DHT22;41709;52.536;5.688;2022-08-01T08:44:31;18.80;75.30
55785;DHT22;41709;52.536;5.688;2022-08-01T08:46:58;18.80;74.50
55785;DHT22;41709;52.536;5.688;2022-08-01T08:49:27;18.90;73.20
55785;DHT22;41709;52.536;5.688;2022-08-01T08:51:53;18.90;73.00
55785;DHT22;41709;52.536;5.688;2022-08-01T08:54:24;18.90;74.60
55785;DHT22;41709;52.536;5.688;2022-08-01T08:56:54;19.00;73.00
55785;DHT22;41709;52.536;5.688;2022-08-01T08:59:21;19.00;73.20
55785;DHT22;41709;52.536;5.688;2022-08-01T09:01:47;19.00;71.40
55785;DHT22;41709;52.536;5.688;2022-08-01T09:04:13;19.00;72.80
55785;DHT22;41709;52.536;5.688;2022-08-01T09:06:39;19.10;72.30
55785;DHT22;41709;52.536;5.688;2022-08-01T09:09:05;19.20;70.20
55785;DHT22;41709;52.536;5.688;2022-08-01T09:11:31;19.20;71.30
55785;DHT22;41709;52.536;5.688;2022-08-01T09:14:17;19.30;70.70
55785;DHT22;41709;52.536;5.688;2022-08-01T09:17:07;19.30;71.60
55785;DHT22;41709;52.536;5.688;2022-08-01T09:19:47;19.30;72.00
55785;DHT22;41709;52.536;5.688;2022-08-01T09:22:15;19.40;71.00
55785;DHT22;41709;52.536;5.688;2022-08-01T09:25:14;19.40;69.30
55785;DHT22;41709;52.536;5.688;2022-08-01T09:27:40;19.40;69.80
55785;DHT22;41709;52.536;5.688;2022-08-01T09:30:13;19.50;70.70
55785;DHT22;41709;52.536;5.688;2022-08-01T09:32:56;19.40;71.80
55785;DHT22;41709;52.536;5.688;2022-08-01T09:35:24;19.50;71.10
55785;DHT22;41709;52.536;5.688;2022-08-01T09:37:50;19.50;67.90
55785;DHT22;41709;52.536;5.688;2022-08-01T09:40:16;19.50;68.20
55785;DHT22;41709;52.536;5.688;2022-08-01T09:42:41;19.50;69.20
55785;DHT22;41709;52.536;5.688;2022-08-01T09:45:07;19.50;68.60
55785;DHT22;41709;52.536;5.688;2022-08-01T09:47:39;19.40;67.80
55785;DHT22;41709;52.536;5.688;2022-08-01T09:50:05;19.40;67.50
55785;DHT22;41709;52.536;5.688;2022-08-01T09:52:31;19.40;69.10
55785;DHT22;41709;52.536;5.688;2022-08-01T09:55:04;19.40;67.60
55785;DHT22;41709;52.536;5.688;2022-08-01T09:57:30;19.40;67.30
55785;DHT22;41709;52.536;5.688;2022-08-01T09:59:58;19.40;67.70
55785;DHT22;41709;52.536;5.688;2022-08-01T10:02:33;19.50;67.50
55785;DHT22;41709;52.536;5.688;2022-08-01T10:05:03;19.50;66.80
55785;DHT22;41709;52.536;5.688;2022-08-01T10:07:29;19.50;66.50
55785;DHT22;41709;52.536;5.688;2022-08-01T10:09:55;19.60;68.70
55785;DHT22;41709;52.536;5.688;2022-08-01T10:12:22;19.60;66.90
55785;DHT22;41709;52.536;5.688;2022-08-01T10:14:51;19.70;67.50
55785;DHT22;41709;52.536;5.688;2022-08-01T10:17:24;19.70;66.20
55785;DHT22;41709;52.536;5.688;2022-08-01T10:19:50;19.60;66.20
55785;DHT22;41709;52.536;5.688;2022-08-01T10:22:16;19.70;66.20
55785;DHT22;41709;52.536;5.688;2022-08-01T10:24:45;19.70;64.30
55785;DHT22;41709;52.536;5.688;2022-08-01T10:27:14;19.70;62.80
55785;DHT22;41709;52.536;5.688;2022-08-01T10:30:11;19.80;63.20
55785;DHT22;41709;52.536;5.688;2022-08-01T10:32:37;19.80;63.50
55785;DHT22;41709;52.536;5.688;2022-08-01T10:35:07;19.80;61.70
55785;DHT22;41709;52.536;5.688;2022-08-01T10:37:35;19.90;63.20
55785;DHT22;41709;52.536;5.688;2022-08-01T10:40:01;19.90;62.60
55785;DHT22;41709;52.536;5.688;2022-08-01T10:42:28;20.00;61.50
55785;DHT22;41709;52.536;5.688;2022-08-01T10:44:54;20.00;61.90
55785;DHT22;41709;52.536;5.688;2022-08-01T10:50:27;20.10;60.40
55785;DHT22;41709;52.536;5.688;2022-08-01T10:53:09;20.20;60.00
55785;DHT22;41709;52.536;5.688;2022-08-01T11:01:26;20.20;60.60
55785;DHT22;41709;52.536;5.688;2022-08-01T11:08:54;20.30;60.90
55785;DHT22;41709;52.536;5.688;2022-08-01T11:11:21;20.30;61.90
55785;DHT22;41709;52.536;5.688;2022-08-01T11:16:31;20.40;61.80
55785;DHT22;41709;52.536;5.688;2022-08-01T11:18:56;20.40;61.10
55785;DHT22;41709;52.536;5.688;2022-08-01T11:27:28;20.30;58.40
55785;DHT22;41709;52.536;5.688;2022-08-01T11:32:49;20.40;59.20
55785;DHT22;41709;52.536;5.688;2022-08-01T11:35:15;20.40;60.50
55785;DHT22;41709;52.536;5.688;2022-08-01T11:37:41;20.30;59.40
55785;DHT22;41709;52.536;5.688;2022-08-01T11:40:23;20.30;59.10
55785;DHT22;41709;52.536;5.688;2022-08-01T11:43:15;20.20;59.70
55785;DHT22;41709;52.536;5.688;2022-08-01T11:45:54;20.30;59.80
55785;DHT22;41709;52.536;5.688;2022-08-01T11:48:25;20.30;61.50
55785;DHT22;41709;52.536;5.688;2022-08-01T11:50:52;20.20;61.30
55785;DHT22;41709;52.536;5.688;2022-08-01T11:53:19;20.20;62.30
55785;DHT22;41709;52.536;5.688;2022-08-01T11:55:52;20.20;62.50
55785;DHT22;41709;52.536;5.688;2022-08-01T11:58:26;20.40;60.40
55785;DHT22;41709;52.536;5.688;2022-08-01T12:00:52;20.50;59.00
55785;DHT22;41709;52.536;5.688;2022-08-01T12:03:27;20.60;58.60
55785;DHT22;41709;52.536;5.688;2022-08-01T12:05:54;20.70;59.40
55785;DHT22;41709;52.536;5.688;2022-08-01T12:08:28;20.70;60.50
55785;DHT22;41709;52.536;5.688;2022-08-01T12:10:54;20.80;60.10
55785;DHT22;41709;52.536;5.688;2022-08-01T12:13:20;20.90;60.00
55785;DHT22;41709;52.536;5.688;2022-08-01T12:15:46;20.90;58.30
55785;DHT22;41709;52.536;5.688;2022-08-01T12:18:12;20.90;58.40
55785;DHT22;41709;52.536;5.688;2022-08-01T12:20:40;20.90;59.90
55785;DHT22;41709;52.536;5.688;2022-08-01T12:23:08;20.80;57.40
55785;DHT22;41709;52.536;5.688;2022-08-01T12:25:35;20.80;58.80
55785;DHT22;41709;52.536;5.688;2022-08-01T12:28:03;20.70;59.30
55785;DHT22;41709;52.536;5.688;2022-08-01T12:30:30;20.80;58.20
55785;DHT22;41709;52.536;5.688;2022-08-01T12:33:03;20.90;57.40
55785;DHT22;41709;52.536;5.688;2022-08-01T12:35:30;21.00;56.70
55785;DHT22;41709;52.536;5.688;2022-08-01T12:38:07;21.00;56.60
55785;DHT22;41709;52.536;5.688;2022-08-01T12:40:41;21.00;57.90
55785;DHT22;41709;52.536;5.688;2022-08-01T12:43:08;21.10;57.50
55785;DHT22;41709;52.536;5.688;2022-08-01T12:45:39;21.10;55.80
55785;DHT22;41709;52.536;5.688;2022-08-01T12:48:10;21.10;58.00
55785;DHT22;41709;52.536;5.688;2022-08-01T12:50:45;21.10;57.90
55785;DHT22;41709;52.536;5.688;2022-08-01T12:53:11;21.10;57.60
55785;DHT22;41709;52.536;5.688;2022-08-01T12:55:53;21.10;57.50
55785;DHT22;41709;52.536;5.688;2022-08-01T12:58:20;21.10;56.90
55785;DHT22;41709;52.536;5.688;2022-08-01T13:00:48;21.10;56.50
55785;DHT22;41709;52.536;5.688;2022-08-01T13:03:18;21.10;57.20
55785;DHT22;41709;52.536;5.688;2022-08-01T13:05:46;21.00;57.80
55785;DHT22;41709;52.536;5.688;2022-08-01T13:08:18;20.80;59.00
55785;DHT22;41709;52.536;5.688;2022-08-01T13:10:44;20.90;58.90
55785;DHT22;41709;52.536;5.688;2022-08-01T13:13:12;20.90;61.20
55785;DHT22;41709;52.536;5.688;2022-08-01T13:15:40;20.90;59.00
55785;DHT22;41709;52.536;5.688;2022-08-01T13:18:25;21.10;59.10
55785;DHT22;41709;52.536;5.688;2022-08-01T13:21:48;21.10;59.00
55785;DHT22;41709;52.536;5.688;2022-08-01T13:26:41;21.10;57.70
55785;DHT22;41709;52.536;5.688;2022-08-01T13:29:09;21.10;56.70
55785;DHT22;41709;52.536;5.688;2022-08-01T13:31:35;21.10;57.90
55785;DHT22;41709;52.536;5.688;2022-08-01T13:34:01;21.20;55.70
55785;DHT22;41709;52.536;5.688;2022-08-01T13:36:27;21.20;55.30
55785;DHT22;41709;52.536;5.688;2022-08-01T13:38:54;21.10;55.70
55785;DHT22;41709;52.536;5.688;2022-08-01T13:41:39;21.10;54.80
55785;DHT22;41709;52.536;5.688;2022-08-01T13:44:05;21.00;55.20
55785;DHT22;41709;52.536;5.688;2022-08-01T13:46:31;21.00;56.00
55785;DHT22;41709;52.536;5.688;2022-08-01T13:48:57;21.10;57.50
55785;DHT22;41709;52.536;5.688;2022-08-01T13:51:23;21.10;56.40
55785;DHT22;41709;52.536;5.688;2022-08-01T13:53:48;21.10;54.70
55785;DHT22;41709;52.536;5.688;2022-08-01T13:56:14;21.20;56.00
55785;DHT22;41709;52.536;5.688;2022-08-01T13:58:41;21.30;55.50
55785;DHT22;41709;52.536;5.688;2022-08-01T14:01:07;21.30;54.50
55785;DHT22;41709;52.536;5.688;2022-08-01T14:03:32;21.30;56.00
55785;DHT22;41709;52.536;5.688;2022-08-01T14:05:58;21.30;54.30
55785;DHT22;41709;52.536;5.688;2022-08-01T14:08:23;21.30;55.00
55785;DHT22;41709;52.536;5.688;2022-08-01T14:10:49;21.40;55.30
55785;DHT22;41709;52.536;5.688;2022-08-01T14:13:14;21.60;51.50
55785;DHT22;41709;52.536;5.688;2022-08-01T14:15:40;21.70;49.40
55785;DHT22;41709;52.536;5.688;2022-08-01T14:18:07;21.70;47.10
55785;DHT22;41709;52.536;5.688;2022-08-01T14:20:34;21.60;47.30
55785;DHT22;41709;52.536;5.688;2022-08-01T14:23:00;21.80;46.10
55785;DHT22;41709;52.536;5.688;2022-08-01T14:25:25;22.00;47.30
55785;DHT22;41709;52.536;5.688;2022-08-01T14:27:54;22.10;46.10
55785;DHT22;41709;52.536;5.688;2022-08-01T14:30:22;21.90;46.90
55785;DHT22;41709;52.536;5.688;2022-08-01T14:32:48;21.80;45.90
55785;DHT22;41709;52.536;5.688;2022-08-01T14:35:13;21.80;47.80
55785;DHT22;41709;52.536;5.688;2022-08-01T14:37:39;21.90;49.30
55785;DHT22;41709;52.536;5.688;2022-08-01T14:40:06;22.00;46.80
55785;DHT22;41709;52.536;5.688;2022-08-01T14:42:34;22.10;49.60
55785;DHT22;41709;52.536;5.688;2022-08-01T14:45:00;22.20;47.00
55785;DHT22;41709;52.536;5.688;2022-08-01T14:47:25;22.10;49.50
55785;DHT22;41709;52.536;5.688;2022-08-01T14:49:51;22.10;49.30
55785;DHT22;41709;52.536;5.688;2022-08-01T14:52:17;22.20;49.80
55785;DHT22;41709;52.536;5.688;2022-08-01T14:54:43;22.20;50.80
55785;DHT22;41709;52.536;5.688;2022-08-01T14:57:08;22.20;48.80
55785;DHT22;41709;52.536;5.688;2022-08-01T14:59:34;22.20;50.30
55785;DHT22;41709;52.536;5.688;2022-08-01T15:02:00;22.20;49.40
55785;DHT22;41709;52.536;5.688;2022-08-01T15:04:25;22.20;48.10
55785;DHT22;41709;52.536;5.688;2022-08-01T15:06:51;22.20;47.10
55785;DHT22;41709;52.536;5.688;2022-08-01T15:09:16;22.30;51.00
55785;DHT22;41709;52.536;5.688;2022-08-01T15:11:42;22.30;48.80
55785;DHT22;41709;52.536;5.688;2022-08-01T15:14:07;22.40;47.70
55785;DHT22;41709;52.536;5.688;2022-08-01T15:16:51;22.30;48.30
55785;DHT22;41709;52.536;5.688;2022-08-01T15:19:17;22.30;50.30
55785;DHT22;41709;52.536;5.688;2022-08-01T15:21:45;22.30;50.30
55785;DHT22;41709;52.536;5.688;2022-08-01T15:24:11;22.30;49.10
55785;DHT22;41709;52.536;5.688;2022-08-01T15:26:36;22.30;49.90
55785;DHT22;41709;52.536;5.688;2022-08-01T15:29:02;22.40;50.00
55785;DHT22;41709;52.536;5.688;2022-08-01T15:31:28;22.40;49.60
55785;DHT22;41709;52.536;5.688;2022-08-01T15:33:53;22.20;50.90
55785;DHT22;41709;52.536;5.688;2022-08-01T15:36:19;22.10;50.50
55785;DHT22;41709;52.536;5.688;2022-08-01T15:38:45;22.10;50.70
55785;DHT22;41709;52.536;5.688;2022-08-01T15:41:10;22.00;52.00
55785;DHT22;41709;52.536;5.688;2022-08-01T15:43:36;22.00;51.70
55785;DHT22;41709;52.536;5.688;2022-08-01T15:46:03;22.00;52.30
55785;DHT22;41709;52.536;5.688;2022-08-01T15:48:29;22.00;52.40
55785;DHT22;41709;52.536;5.688;2022-08-01T15:50:55;22.00;50.00
55785;DHT22;41709;52.536;5.688;2022-08-01T15:53:20;22.20;49.50
55785;DHT22;41709;52.536;5.688;2022-08-01T15:55:46;22.10;49.10
55785;DHT22;41709;52.536;5.688;2022-08-01T15:58:11;22.10;48.20
55785;DHT22;41709;52.536;5.688;2022-08-01T16:00:37;22.10;47.10
55785;DHT22;41709;52.536;5.688;2022-08-01T16:03:03;22.00;44.30
55785;DHT22;41709;52.536;5.688;2022-08-01T16:05:29;21.90;45.10
55785;DHT22;41709;52.536;5.688;2022-08-01T16:07:54;22.00;44.40
55785;DHT22;41709;52.536;5.688;2022-08-01T16:10:20;21.90;42.60
55785;DHT22;41709;52.536;5.688;2022-08-01T16:12:45;22.00;48.60